Time;durP1;ratioP1;P1;durP2;ratioP2;P2;SDS_P1;SDS_P2;PMS_P1;PMS_P2;Temp;Humidity;BMP_temperature;BMP_pressure;BME280_temperature;BME280_humidity;BME280_pressure;Samples;Min_cycle;Max_cycle;Signal;HPM_P1;HPM_P2
2023/09/21 00:02:23;;;;;;;;;;;18.00;99.90;;;;;;4994213;28;19934;-42
2023/09/21 00:04:50;;;;;;;;;;;18.00;99.90;;;;;;4994162;28;19922;-43
2023/09/21 00:07:15;;;;;;;;;;;18.00;99.90;;;;;;4994142;28;19929;-42
2023/09/21 00:09:41;;;;;;;;;;;18.00;99.90;;;;;;5009170;28;19922;-43
2023/09/21 00:12:09;;;;;;;;;;;18.00;99.90;;;;;;5009568;28;19937;-42
2023/09/21 00:14:34;;;;;;;;;;;18.00;99.90;;;;;;4993952;28;20016;-42
2023/09/21 00:17:00;;;;;;;;;;;18.00;99.90;;;;;;4994096;28;20413;-43
2023/09/21 00:19:26;;;;;;;;;;;18.00;99.90;;;;;;4994015;28;19922;-42
2023/09/21 00:21:54;;;;;;;;;;;18.00;99.90;;;;;;4992341;28;20375;-42
2023/09/21 00:24:21;;;;;;;;;;;18.00;99.90;;;;;;4981548;28;19922;-43
2023/09/21 00:26:49;;;;;;;;;;;18.00;99.90;;;;;;4994088;28;20294;-43
2023/09/21 00:29:15;;;;;;;;;;;18.00;99.90;;;;;;4993801;28;19965;-42
2023/09/21 00:31:41;;;;;;;;;;;18.00;99.90;;;;;;4997139;28;19922;-43
2023/09/21 00:34:08;;;;;;;;;;;18.00;99.90;;;;;;4997395;28;19949;-42
2023/09/21 00:36:35;;;;;;;;;;;18.00;99.90;;;;;;4997281;28;20452;-42
2023/09/21 00:39:01;;;;;;;;;;;18.00;99.90;;;;;;4997284;28;19929;-42
2023/09/21 00:41:31;;;;;;;;;;;18.00;99.90;;;;;;4980018;28;19922;-43
2023/09/21 00:43:56;;;;;;;;;;;17.90;99.90;;;;;;4997105;28;19929;-42
2023/09/21 00:46:25;;;;;;;;;;;17.90;99.90;;;;;;4997235;28;19922;-42
2023/09/21 00:48:53;;;;;;;;;;;17.90;99.90;;;;;;4997184;28;19925;-43
2023/09/21 00:51:18;;;;;;;;;;;17.90;99.90;;;;;;4997128;28;20278;-42
2023/09/21 00:53:45;;;;;;;;;;;17.90;99.90;;;;;;4996894;28;19926;-42
2023/09/21 00:56:12;;;;;;;;;;;17.90;99.90;;;;;;4996805;28;19929;-43
2023/09/21 00:58:39;;;;;;;;;;;17.90;99.90;;;;;;4996681;28;19925;-43
2023/09/21 01:01:05;;;;;;;;;;;17.90;99.90;;;;;;4997003;28;19945;-43
2023/09/21 01:03:31;;;;;;;;;;;17.90;99.90;;;;;;4996837;28;19921;-43
2023/09/21 01:05:57;;;;;;;;;;;17.90;99.90;;;;;;4996836;28;19929;-42
2023/09/21 01:08:28;;;;;;;;;;;18.00;99.90;;;;;;4996764;28;19922;-42
2023/09/21 01:10:54;;;;;;;;;;;18.00;99.90;;;;;;4996743;28;19930;-42
2023/09/21 01:13:20;;;;;;;;;;;18.00;99.90;;;;;;4996406;28;20389;-43
2023/09/21 01:15:57;;;;;;;;;;;18.00;99.90;;;;;;4996609;28;19922;-43
2023/09/21 01:18:23;;;;;;;;;;;18.00;99.90;;;;;;4996875;28;19925;-42
2023/09/21 01:20:51;;;;;;;;;;;18.00;99.90;;;;;;4996428;28;20363;-42
2023/09/21 01:23:22;;;;;;;;;;;18.00;99.90;;;;;;4996426;28;19976;-43
2023/09/21 01:25:52;;;;;;;;;;;18.00;99.90;;;;;;4997000;28;19922;-42
2023/09/21 01:28:22;;;;;;;;;;;18.00;99.90;;;;;;4996412;28;20386;-43
2023/09/21 01:30:49;;;;;;;;;;;18.00;99.90;;;;;;4996405;28;19921;-42
2023/09/21 01:33:15;;;;;;;;;;;18.00;99.90;;;;;;4979176;28;19925;-43
2023/09/21 01:35:44;;;;;;;;;;;18.00;99.90;;;;;;4979084;28;19922;-43
2023/09/21 01:38:10;;;;;;;;;;;18.00;99.90;;;;;;4995965;28;19922;-43
2023/09/21 01:40:36;;;;;;;;;;;18.00;99.90;;;;;;4996032;28;19929;-43
2023/09/21 01:43:06;;;;;;;;;;;18.00;99.90;;;;;;4995171;28;19922;-42
2023/09/21 01:45:32;;;;;;;;;;;18.00;99.90;;;;;;4995943;28;19921;-42
2023/09/21 01:47:59;;;;;;;;;;;18.00;99.90;;;;;;4995843;28;19922;-43
2023/09/21 01:50:25;;;;;;;;;;;18.00;99.90;;;;;;4978765;28;19969;-42
2023/09/21 01:52:50;;;;;;;;;;;18.00;99.90;;;;;;4995621;28;19975;-42
2023/09/21 01:55:16;;;;;;;;;;;18.00;99.90;;;;;;4995906;28;20016;-42
2023/09/21 01:57:43;;;;;;;;;;;18.00;99.90;;;;;;4995874;28;19929;-42
2023/09/21 02:00:25;;;;;;;;;;;18.00;99.90;;;;;;4995753;28;19928;-42
2023/09/21 02:02:51;;;;;;;;;;;18.00;99.90;;;;;;4995784;28;20330;-42
2023/09/21 02:05:16;;;;;;;;;;;17.90;99.90;;;;;;4995596;28;19944;-43
2023/09/21 02:07:43;;;;;;;;;;;17.90;99.90;;;;;;4995763;28;19922;-42
2023/09/21 02:10:12;;;;;;;;;;;17.90;99.90;;;;;;4995589;28;19928;-43
2023/09/21 02:12:38;;;;;;;;;;;17.90;99.90;;;;;;4995593;28;19921;-42
2023/09/21 02:15:06;;;;;;;;;;;17.90;99.90;;;;;;4995554;28;20436;-42
2023/09/21 02:17:31;;;;;;;;;;;17.80;99.90;;;;;;4978192;28;19928;-42
2023/09/21 02:19:59;;;;;;;;;;;17.80;99.90;;;;;;4995263;28;19972;-42
2023/09/21 02:22:24;;;;;;;;;;;17.80;99.90;;;;;;4995371;28;19926;-42
2023/09/21 02:24:50;;;;;;;;;;;17.80;99.90;;;;;;4995153;28;20005;-42
2023/09/21 02:27:16;;;;;;;;;;;17.80;99.90;;;;;;4995633;28;20029;-42
2023/09/21 02:29:41;;;;;;;;;;;17.80;99.90;;;;;;4995038;28;20294;-42
2023/09/21 02:32:07;;;;;;;;;;;17.80;99.90;;;;;;4995268;28;19921;-43
2023/09/21 02:34:33;;;;;;;;;;;17.80;99.90;;;;;;4995185;28;20302;-42
2023/09/21 02:37:01;;;;;;;;;;;17.80;99.90;;;;;;4995185;28;20008;-43
2023/09/21 02:39:28;;;;;;;;;;;17.70;99.90;;;;;;4995229;28;19922;-42
2023/09/21 02:41:53;;;;;;;;;;;17.70;99.90;;;;;;4995057;28;20017;-42
2023/09/21 02:44:19;;;;;;;;;;;17.70;99.90;;;;;;4995010;28;20378;-43
2023/09/21 02:46:44;;;;;;;;;;;17.70;99.90;;;;;;4994846;28;19928;-42
2023/09/21 02:49:10;;;;;;;;;;;17.70;99.90;;;;;;4994678;28;19929;-42
2023/09/21 02:51:38;;;;;;;;;;;17.70;99.90;;;;;;4994941;28;19925;-42
2023/09/21 02:54:07;;;;;;;;;;;17.60;99.90;;;;;;4994831;28;19926;-42
2023/09/21 02:56:33;;;;;;;;;;;17.60;99.90;;;;;;4994976;28;20264;-43
2023/09/21 02:59:00;;;;;;;;;;;17.70;99.90;;;;;;4994690;28;19976;-42
2023/09/21 03:01:25;;;;;;;;;;;17.60;99.90;;;;;;4994574;28;19929;-43
2023/09/21 03:03:51;;;;;;;;;;;17.70;99.90;;;;;;4994539;28;19922;-42
2023/09/21 03:06:17;;;;;;;;;;;17.70;99.90;;;;;;4994735;28;19928;-43
2023/09/21 03:08:45;;;;;;;;;;;17.70;99.90;;;;;;4994661;28;20012;-42
2023/09/21 03:11:11;;;;;;;;;;;17.70;99.90;;;;;;4994728;28;20383;-43
2023/09/21 03:13:38;;;;;;;;;;;17.80;99.90;;;;;;4994638;28;19983;-42
2023/09/21 03:16:10;;;;;;;;;;;17.80;99.90;;;;;;4994465;28;20363;-42
2023/09/21 03:18:36;;;;;;;;;;;17.80;99.90;;;;;;4994550;28;19928;-42
2023/09/21 03:21:15;;;;;;;;;;;17.90;99.90;;;;;;4977556;28;19922;-43
2023/09/21 03:23:41;;;;;;;;;;;17.90;99.90;;;;;;4992481;28;19921;-43
2023/09/21 03:26:10;;;;;;;;;;;18.00;99.90;;;;;;4994622;28;20008;-42
2023/09/21 03:28:37;;;;;;;;;;;18.00;99.90;;;;;;4994297;28;20040;-43
2023/09/21 03:31:03;;;;;;;;;;;18.00;99.90;;;;;;4994632;28;20016;-43
2023/09/21 03:33:28;;;;;;;;;;;18.10;99.90;;;;;;4994389;28;19980;-43
2023/09/21 03:35:54;;;;;;;;;;;18.10;99.90;;;;;;4994792;28;19926;-42
2023/09/21 03:38:19;;;;;;;;;;;18.10;99.90;;;;;;4994262;28;20457;-42
2023/09/21 03:40:48;;;;;;;;;;;18.10;99.90;;;;;;4994199;28;19922;-42
2023/09/21 03:43:13;;;;;;;;;;;18.10;99.90;;;;;;4994244;28;19929;-43
2023/09/21 03:45:40;;;;;;;;;;;18.20;99.90;;;;;;4994451;28;19922;-42
2023/09/21 03:48:08;;;;;;;;;;;18.10;99.90;;;;;;4994359;28;19973;-42
2023/09/21 03:50:34;;;;;;;;;;;18.10;99.90;;;;;;4994212;28;20426;-42
2023/09/21 03:53:00;;;;;;;;;;;18.20;99.90;;;;;;4994631;28;19921;-42
2023/09/21 03:55:26;;;;;;;;;;;18.20;99.90;;;;;;4977091;28;20439;-42
2023/09/21 03:57:51;;;;;;;;;;;18.20;99.90;;;;;;5009545;28;19921;-42
2023/09/21 04:00:29;;;;;;;;;;;18.20;99.90;;;;;;4994179;28;19937;-42
2023/09/21 04:03:01;;;;;;;;;;;18.20;99.90;;;;;;4994305;28;19928;-42
2023/09/21 04:05:27;;;;;;;;;;;18.20;99.90;;;;;;4995708;28;20290;-42
2023/09/21 04:07:53;;;;;;;;;;;18.20;99.90;;;;;;4997873;28;20298;-42
2023/09/21 04:10:19;;;;;;;;;;;18.20;99.90;;;;;;4997648;28;19926;-42
2023/09/21 04:12:44;;;;;;;;;;;18.20;99.90;;;;;;4997609;28;20473;-42
2023/09/21 04:15:11;;;;;;;;;;;18.20;99.90;;;;;;4997715;28;20413;-42
2023/09/21 04:17:40;;;;;;;;;;;18.20;99.90;;;;;;4997904;28;19921;-43
2023/09/21 04:20:12;;;;;;;;;;;18.20;99.90;;;;;;4997660;28;19921;-42
2023/09/21 04:22:39;;;;;;;;;;;18.10;99.90;;;;;;4997691;28;19980;-42
2023/09/21 04:25:07;;;;;;;;;;;18.20;99.90;;;;;;4997292;28;19926;-42
2023/09/21 04:27:34;;;;;;;;;;;18.10;99.90;;;;;;4997563;28;19922;-43
2023/09/21 04:30:01;;;;;;;;;;;18.10;99.90;;;;;;4997527;28;19944;-42
2023/09/21 04:32:26;;;;;;;;;;;18.10;99.90;;;;;;4997526;28;19922;-42
2023/09/21 04:34:52;;;;;;;;;;;18.10;99.90;;;;;;4997480;28;19925;-42
2023/09/21 04:37:18;;;;;;;;;;;18.20;99.90;;;;;;4997247;28;20417;-42
2023/09/21 04:39:43;;;;;;;;;;;18.10;99.90;;;;;;4997209;28;20330;-42
2023/09/21 04:42:11;;;;;;;;;;;18.10;99.90;;;;;;4997371;28;19928;-43
2023/09/21 04:44:37;;;;;;;;;;;18.10;99.90;;;;;;4997279;28;19925;-42
2023/09/21 04:47:03;;;;;;;;;;;18.10;99.90;;;;;;5012290;28;20453;-42
2023/09/21 04:49:28;;;;;;;;;;;18.10;99.90;;;;;;4997126;28;20334;-42
2023/09/21 04:51:54;;;;;;;;;;;18.10;99.90;;;;;;4997134;28;20004;-42
2023/09/21 04:54:21;;;;;;;;;;;18.10;99.90;;;;;;5012246;28;19929;-42
2023/09/21 04:56:47;;;;;;;;;;;18.10;99.90;;;;;;4997065;28;19965;-42
2023/09/21 04:59:14;;;;;;;;;;;18.10;99.90;;;;;;4996926;28;19969;-42
2023/09/21 05:01:40;;;;;;;;;;;18.10;99.90;;;;;;4996918;28;19977;-42
2023/09/21 05:04:05;;;;;;;;;;;18.00;99.90;;;;;;4996757;28;20323;-43
2023/09/21 05:06:31;;;;;;;;;;;18.10;99.90;;;;;;4996563;28;20000;-43
2023/09/21 05:08:57;;;;;;;;;;;18.00;99.90;;;;;;4996559;28;19921;-42
2023/09/21 05:11:22;;;;;;;;;;;18.00;99.90;;;;;;4996608;28;20056;-43
2023/09/21 05:13:50;;;;;;;;;;;18.00;99.90;;;;;;4996907;28;19968;-43
2023/09/21 05:16:18;;;;;;;;;;;18.00;99.90;;;;;;4995775;28;19922;-45
2023/09/21 05:18:44;;;;;;;;;;;18.00;99.90;;;;;;4996211;28;20394;-42
2023/09/21 05:21:11;;;;;;;;;;;18.00;99.90;;;;;;4979428;28;20063;-43
2023/09/21 05:23:37;;;;;;;;;;;18.00;99.90;;;;;;4996409;28;19967;-42
2023/09/21 05:26:03;;;;;;;;;;;18.00;99.90;;;;;;4996687;28;19925;-43
2023/09/21 05:28:28;;;;;;;;;;;17.90;99.90;;;;;;4996466;28;19921;-43
2023/09/21 05:30:54;;;;;;;;;;;17.90;99.90;;;;;;4996426;28;19928;-42
2023/09/21 05:33:20;;;;;;;;;;;17.90;99.90;;;;;;4996197;28;19929;-43
2023/09/21 05:35:50;;;;;;;;;;;17.90;99.90;;;;;;4996179;28;20000;-43
2023/09/21 05:38:16;;;;;;;;;;;17.90;99.90;;;;;;4996090;28;19922;-42
2023/09/21 05:40:41;;;;;;;;;;;17.90;99.90;;;;;;4996112;28;20017;-42
2023/09/21 05:43:07;;;;;;;;;;;17.90;99.90;;;;;;4996185;28;19973;-43
2023/09/21 05:45:33;;;;;;;;;;;17.90;99.90;;;;;;4996120;28;19922;-42
2023/09/21 05:47:58;;;;;;;;;;;17.90;99.90;;;;;;4996083;28;19921;-44
2023/09/21 05:50:24;;;;;;;;;;;17.90;99.90;;;;;;4996058;28;19926;-42
2023/09/21 05:52:50;;;;;;;;;;;17.90;99.90;;;;;;4995660;28;19929;-43
2023/09/21 05:55:16;;;;;;;;;;;17.90;99.90;;;;;;4995947;28;19921;-43
2023/09/21 05:57:46;;;;;;;;;;;18.00;99.90;;;;;;4995759;28;19921;-42
2023/09/21 06:00:12;;;;;;;;;;;18.00;99.90;;;;;;4995686;28;20294;-42
2023/09/21 06:02:38;;;;;;;;;;;18.00;99.90;;;;;;4995768;28;19928;-42
2023/09/21 06:05:04;;;;;;;;;;;18.00;99.90;;;;;;4995628;28;19926;-43
2023/09/21 06:07:29;;;;;;;;;;;18.10;99.90;;;;;;4996093;28;19929;-42
2023/09/21 06:09:55;;;;;;;;;;;18.00;99.90;;;;;;4996227;28;19922;-42
2023/09/21 06:12:21;;;;;;;;;;;18.10;99.90;;;;;;4995616;28;19928;-43
2023/09/21 06:14:50;;;;;;;;;;;18.10;99.90;;;;;;4995767;28;19921;-42
2023/09/21 06:17:15;;;;;;;;;;;18.10;99.90;;;;;;4995541;28;19921;-42
2023/09/21 06:19:41;;;;;;;;;;;18.10;99.90;;;;;;4995397;28;19922;-43
2023/09/21 06:22:07;;;;;;;;;;;18.20;99.90;;;;;;4995452;28;19924;-42
2023/09/21 06:24:32;;;;;;;;;;;18.10;99.90;;;;;;4995276;28;19925;-42
2023/09/21 06:26:58;;;;;;;;;;;18.20;99.90;;;;;;4995396;28;20013;-42
2023/09/21 06:29:24;;;;;;;;;;;18.20;99.90;;;;;;4994706;28;20325;-42
2023/09/21 06:31:54;;;;;;;;;;;18.20;99.90;;;;;;4978131;28;19926;-42
2023/09/21 06:34:22;;;;;;;;;;;18.20;99.90;;;;;;4995045;28;19928;-42
2023/09/21 06:36:47;;;;;;;;;;;18.30;99.90;;;;;;4995196;28;19922;-43
2023/09/21 06:39:14;;;;;;;;;;;18.30;99.90;;;;;;4995051;28;19979;-43
2023/09/21 06:41:40;;;;;;;;;;;18.30;99.90;;;;;;4995121;28;20012;-43
2023/09/21 06:44:05;;;;;;;;;;;18.30;99.90;;;;;;4995207;28;20278;-42
2023/09/21 06:46:31;;;;;;;;;;;18.30;99.90;;;;;;4994844;28;20004;-42
2023/09/21 06:48:56;;;;;;;;;;;18.30;99.90;;;;;;4977737;28;19972;-43
2023/09/21 06:51:22;;;;;;;;;;;18.30;99.90;;;;;;4994719;28;20378;-43
2023/09/21 06:53:48;;;;;;;;;;;18.30;99.90;;;;;;4994892;28;20306;-43
2023/09/21 06:56:14;;;;;;;;;;;18.30;99.90;;;;;;4994856;28;19926;-43
2023/09/21 06:58:40;;;;;;;;;;;18.30;99.90;;;;;;4994928;28;19928;-43
2023/09/21 07:01:05;;;;;;;;;;;18.30;99.90;;;;;;4977652;28;19928;-43
2023/09/21 07:03:32;;;;;;;;;;;18.30;99.90;;;;;;4994750;28;19929;-43
2023/09/21 07:05:58;;;;;;;;;;;18.30;99.90;;;;;;4995062;28;19968;-43
2023/09/21 07:08:23;;;;;;;;;;;18.30;99.90;;;;;;4977724;28;19921;-44
2023/09/21 07:10:49;;;;;;;;;;;18.30;99.90;;;;;;4994926;28;19929;-43
2023/09/21 07:13:15;;;;;;;;;;;18.30;99.90;;;;;;4994682;28;19945;-43
2023/09/21 07:15:41;;;;;;;;;;;18.30;99.90;;;;;;4994724;28;19921;-43
2023/09/21 07:18:07;;;;;;;;;;;18.20;99.90;;;;;;4994446;28;19922;-43
2023/09/21 07:20:33;;;;;;;;;;;18.20;99.90;;;;;;4994344;28;19922;-43
2023/09/21 07:22:59;;;;;;;;;;;18.20;99.90;;;;;;4994598;28;19928;-42
2023/09/21 07:25:25;;;;;;;;;;;18.20;99.90;;;;;;4994230;28;19921;-42
2023/09/21 07:27:54;;;;;;;;;;;18.10;99.90;;;;;;4994544;28;19921;-42
2023/09/21 07:30:20;;;;;;;;;;;18.00;99.90;;;;;;4994593;28;19928;-42
2023/09/21 07:32:46;;;;;;;;;;;18.00;99.90;;;;;;4994434;28;20405;-42
2023/09/21 07:35:14;;;;;;;;;;;18.00;99.90;;;;;;4994501;28;20016;-42
2023/09/21 07:37:41;;;;;;;;;;;17.90;99.90;;;;;;4994496;28;19922;-42
2023/09/21 07:40:07;;;;;;;;;;;17.90;99.90;;;;;;4995255;28;19980;-42
2023/09/21 07:42:36;;;;;;;;;;;17.90;99.90;;;;;;4998371;28;19929;-42
2023/09/21 07:45:01;;;;;;;;;;;17.90;99.90;;;;;;4998341;28;19928;-42
2023/09/21 07:47:27;;;;;;;;;;;17.90;99.90;;;;;;4998227;28;20345;-42
2023/09/21 07:49:55;;;;;;;;;;;17.90;99.90;;;;;;4980971;28;19926;-42
2023/09/21 07:52:23;;;;;;;;;;;17.90;99.90;;;;;;4998680;28;19929;-42
2023/09/21 07:54:49;;;;;;;;;;;17.90;99.90;;;;;;4998317;28;19921;-42
2023/09/21 07:57:16;;;;;;;;;;;17.90;99.90;;;;;;4998191;28;19922;-42
2023/09/21 07:59:42;;;;;;;;;;;17.90;99.90;;;;;;4997926;28;20358;-42
2023/09/21 08:02:09;;;;;;;;;;;17.90;99.90;;;;;;4997763;28;19928;-43
2023/09/21 08:04:35;;;;;;;;;;;17.90;99.90;;;;;;4998075;28;19922;-42
2023/09/21 08:07:01;;;;;;;;;;;17.90;99.90;;;;;;4998061;28;20023;-42
2023/09/21 08:09:26;;;;;;;;;;;17.90;99.90;;;;;;4997946;28;19922;-42
2023/09/21 08:11:52;;;;;;;;;;;17.90;99.90;;;;;;4997781;28;19932;-42
2023/09/21 08:14:18;;;;;;;;;;;17.90;99.90;;;;;;4997757;28;19928;-42
2023/09/21 08:16:44;;;;;;;;;;;17.90;99.90;;;;;;4997732;28;20021;-42
2023/09/21 08:19:09;;;;;;;;;;;17.90;99.90;;;;;;4997655;28;20019;-42
2023/09/21 08:21:36;;;;;;;;;;;17.80;99.90;;;;;;4997603;28;20377;-42
2023/09/21 08:24:01;;;;;;;;;;;17.80;99.90;;;;;;4997481;28;19980;-42
2023/09/21 08:26:27;;;;;;;;;;;17.80;99.90;;;;;;4997556;28;19969;-42
2023/09/21 08:28:53;;;;;;;;;;;17.90;99.90;;;;;;4997543;28;19921;-42
2023/09/21 08:31:19;;;;;;;;;;;17.80;99.90;;;;;;4997283;28;19926;-42
2023/09/21 08:33:46;;;;;;;;;;;17.80;99.90;;;;;;4997325;28;20376;-42
2023/09/21 08:36:15;;;;;;;;;;;17.80;99.90;;;;;;4997350;28;19921;-42
2023/09/21 08:38:41;;;;;;;;;;;17.80;99.90;;;;;;4980025;28;19929;-42
2023/09/21 08:41:07;;;;;;;;;;;17.70;99.90;;;;;;4997386;28;19921;-41
2023/09/21 08:43:34;;;;;;;;;;;17.70;99.90;;;;;;4997204;28;20310;-42
2023/09/21 08:46:00;;;;;;;;;;;17.70;99.90;;;;;;4997064;28;19929;-43
2023/09/21 08:48:29;;;;;;;;;;;17.70;99.90;;;;;;4997285;28;19926;-42
2023/09/21 08:50:55;;;;;;;;;;;17.70;99.90;;;;;;4996802;28;19922;-42
2023/09/21 08:53:21;;;;;;;;;;;17.70;99.90;;;;;;4997011;28;20027;-42
2023/09/21 08:55:52;;;;;;;;;;;17.70;99.90;;;;;;4996974;28;19929;-42
2023/09/21 08:58:23;;;;;;;;;;;17.70;99.90;;;;;;4996802;28;19928;-42
2023/09/21 09:00:51;;;;;;;;;;;17.60;99.90;;;;;;4996930;28;19921;-42
2023/09/21 09:03:19;;;;;;;;;;;17.60;99.90;;;;;;4996987;28;19928;-41
2023/09/21 09:05:45;;;;;;;;;;;17.60;99.90;;;;;;4996777;28;19925;-41
2023/09/21 09:08:12;;;;;;;;;;;17.60;99.90;;;;;;4996701;28;19921;-43
2023/09/21 09:10:39;;;;;;;;;;;17.60;99.90;;;;;;4996641;28;20359;-41
2023/09/21 09:13:06;;;;;;;;;;;17.50;99.90;;;;;;4996519;28;19926;-41
2023/09/21 09:15:33;;;;;;;;;;;17.60;99.90;;;;;;4996783;28;19976;-41
2023/09/21 09:18:02;;;;;;;;;;;17.50;99.90;;;;;;4996673;28;19922;-42
2023/09/21 09:20:28;;;;;;;;;;;17.50;99.90;;;;;;4996552;28;20002;-41
2023/09/21 09:22:54;;;;;;;;;;;17.50;99.90;;;;;;4996524;28;19955;-41
2023/09/21 09:25:21;;;;;;;;;;;17.50;99.90;;;;;;4996721;28;19921;-43
2023/09/21 09:27:46;;;;;;;;;;;17.40;99.90;;;;;;4996288;28;20333;-41
2023/09/21 09:30:12;;;;;;;;;;;17.30;99.90;;;;;;4996887;28;19922;-41
2023/09/21 09:32:41;;;;;;;;;;;17.20;99.90;;;;;;4996410;28;19968;-42
2023/09/21 09:35:11;;;;;;;;;;;17.10;99.90;;;;;;4996237;28;19921;-40
2023/09/21 09:37:37;;;;;;;;;;;17.00;99.90;;;;;;4996287;28;19926;-41
2023/09/21 09:40:09;;;;;;;;;;;17.00;99.90;;;;;;5011219;28;19929;-42
2023/09/21 09:42:35;;;;;;;;;;;16.90;99.90;;;;;;4996244;28;20358;-41
2023/09/21 09:45:03;;;;;;;;;;;16.90;99.90;;;;;;4996319;28;19921;-41
2023/09/21 09:47:29;;;;;;;;;;;16.90;99.90;;;;;;4996598;28;19925;-41
2023/09/21 09:49:55;;;;;;;;;;;16.80;99.90;;;;;;4996041;28;20374;-41
2023/09/21 09:52:22;;;;;;;;;;;16.80;99.90;;;;;;4996194;28;20435;-41
2023/09/21 09:54:51;;;;;;;;;;;16.80;99.90;;;;;;4995826;28;19976;-41
2023/09/21 09:57:17;;;;;;;;;;;16.70;99.90;;;;;;4995989;28;19926;-41
2023/09/21 09:59:44;;;;;;;;;;;16.70;99.90;;;;;;4995790;28;20359;-41
2023/09/21 10:02:13;;;;;;;;;;;16.60;99.90;;;;;;4995732;28;19928;-41
2023/09/21 10:04:40;;;;;;;;;;;16.60;99.90;;;;;;4995376;28;20414;-41
2023/09/21 10:07:10;;;;;;;;;;;16.60;99.90;;;;;;4995837;28;20326;-41
2023/09/21 10:09:37;;;;;;;;;;;16.50;99.90;;;;;;4995793;28;19926;-41
2023/09/21 10:12:03;;;;;;;;;;;16.50;99.90;;;;;;4978778;28;20268;-41
2023/09/21 10:14:31;;;;;;;;;;;16.50;99.90;;;;;;4995957;28;20008;-41
2023/09/21 10:16:57;;;;;;;;;;;16.60;99.90;;;;;;4978436;28;19980;-41
2023/09/21 10:19:24;;;;;;;;;;;16.50;99.90;;;;;;4978179;28;19977;-40
2023/09/21 10:21:52;;;;;;;;;;;16.50;99.90;;;;;;4995301;28;19922;-40
2023/09/21 10:24:18;;;;;;;;;;;16.50;99.90;;;;;;4995429;28;19929;-40
2023/09/21 10:26:46;;;;;;;;;;;16.50;99.90;;;;;;4995466;28;20291;-40
2023/09/21 10:29:12;;;;;;;;;;;16.50;99.90;;;;;;4995383;28;19929;-40
2023/09/21 10:31:39;;;;;;;;;;;16.40;99.90;;;;;;4978271;28;20298;-40
2023/09/21 10:34:08;;;;;;;;;;;16.40;99.90;;;;;;4995326;28;20004;-40
2023/09/21 10:36:36;;;;;;;;;;;16.30;99.90;;;;;;4994936;28;20020;-41
2023/09/21 10:39:05;;;;;;;;;;;16.30;99.90;;;;;;4995250;28;20282;-40
2023/09/21 10:41:30;;;;;;;;;;;16.30;99.90;;;;;;4995109;28;20302;-40
2023/09/21 10:43:56;;;;;;;;;;;16.30;99.90;;;;;;4995006;28;19921;-41
2023/09/21 10:46:23;;;;;;;;;;;16.30;99.90;;;;;;4995035;28;19922;-40
2023/09/21 10:49:05;;;;;;;;;;;16.20;99.90;;;;;;4994897;28;19928;-40
2023/09/21 10:51:31;;;;;;;;;;;16.20;99.90;;;;;;4995002;28;19921;-40
2023/09/21 10:53:59;;;;;;;;;;;16.20;99.90;;;;;;4994815;28;19945;-40
2023/09/21 10:56:28;;;;;;;;;;;16.20;99.90;;;;;;4994793;28;19921;-40
2023/09/21 10:58:54;;;;;;;;;;;16.20;99.90;;;;;;4994706;28;20334;-41
2023/09/21 11:01:21;;;;;;;;;;;16.20;99.90;;;;;;4994687;28;19922;-41
2023/09/21 11:03:48;;;;;;;;;;;16.20;99.90;;;;;;4994815;28;19944;-41
2023/09/21 11:06:16;;;;;;;;;;;16.20;99.90;;;;;;4995179;28;19976;-40
2023/09/21 11:08:42;;;;;;;;;;;16.20;99.90;;;;;;4994870;28;19968;-40
2023/09/21 11:11:07;;;;;;;;;;;16.20;99.90;;;;;;4994617;28;20322;-40
2023/09/21 11:13:33;;;;;;;;;;;16.20;99.90;;;;;;4994414;28;19968;-40
2023/09/21 11:15:58;;;;;;;;;;;16.20;99.90;;;;;;4994613;28;19976;-41
2023/09/21 11:18:24;;;;;;;;;;;16.30;99.90;;;;;;4994450;28;19928;-40
2023/09/21 11:20:50;;;;;;;;;;;16.30;99.90;;;;;;4994539;28;20386;-40
2023/09/21 11:23:18;;;;;;;;;;;16.30;99.90;;;;;;4994660;28;19921;-40
2023/09/21 11:25:47;;;;;;;;;;;16.30;99.90;;;;;;4994489;28;19921;-40
2023/09/21 11:28:13;;;;;;;;;;;16.30;99.90;;;;;;4994443;28;19925;-40
2023/09/21 11:30:42;;;;;;;;;;;16.40;99.90;;;;;;4994382;28;20056;-40
2023/09/21 11:33:08;;;;;;;;;;;16.40;99.90;;;;;;4994748;28;19968;-40
2023/09/21 11:35:34;;;;;;;;;;;16.40;99.90;;;;;;4994456;28;19932;-40
2023/09/21 11:38:00;;;;;;;;;;;16.40;99.90;;;;;;4994223;28;20004;-40
2023/09/21 11:40:26;;;;;;;;;;;16.40;99.90;;;;;;4994383;28;19921;-40
2023/09/21 11:42:59;;;;;;;;;;;16.40;99.90;;;;;;4994262;28;19976;-40
2023/09/21 11:45:25;;;;;;;;;;;16.40;99.90;;;;;;4994218;28;19969;-41
2023/09/21 11:47:56;;;;;;;;;;;16.40;99.90;;;;;;4994431;28;20016;-40
2023/09/21 11:50:26;;;;;;;;;;;16.40;99.90;;;;;;4994435;28;20371;-40
2023/09/21 11:52:56;;;;;;;;;;;16.40;99.90;;;;;;4994398;28;19922;-40
2023/09/21 11:55:26;;;;;;;;;;;16.40;99.90;;;;;;4994192;28;19922;-40
2023/09/21 11:57:52;;;;;;;;;;;16.40;99.90;;;;;;4994259;28;19922;-41
2023/09/21 12:00:27;;;;;;;;;;;16.50;99.90;;;;;;4994245;28;19922;-40
2023/09/21 12:02:54;;;;;;;;;;;16.50;99.90;;;;;;4994094;28;19925;-40
2023/09/21 12:05:20;;;;;;;;;;;16.50;99.90;;;;;;4994450;28;20367;-40
2023/09/21 12:07:46;;;;;;;;;;;16.50;99.90;;;;;;4994013;28;20006;-40
2023/09/21 12:10:13;;;;;;;;;;;16.50;99.90;;;;;;4976895;28;19973;-41
2023/09/21 12:12:40;;;;;;;;;;;16.50;99.90;;;;;;4976855;28;19969;-40
2023/09/21 12:15:06;;;;;;;;;;;16.50;99.90;;;;;;4994171;28;19967;-41
2023/09/21 12:17:32;;;;;;;;;;;16.50;99.90;;;;;;4994349;28;19926;-40
2023/09/21 12:19:59;;;;;;;;;;;16.50;99.90;;;;;;4993991;28;19922;-40
2023/09/21 12:22:26;;;;;;;;;;;16.50;99.90;;;;;;4994045;28;20401;-40
2023/09/21 12:24:54;;;;;;;;;;;16.50;99.90;;;;;;4994069;28;20295;-41
2023/09/21 12:27:20;;;;;;;;;;;16.50;99.90;;;;;;4996985;28;19925;-40
2023/09/21 12:29:45;;;;;;;;;;;16.50;99.90;;;;;;4997663;28;19921;-40
2023/09/21 12:32:11;;;;;;;;;;;16.50;99.90;;;;;;4997545;28;19925;-40
2023/09/21 12:34:37;;;;;;;;;;;16.50;99.90;;;;;;4997551;28;19921;-41
2023/09/21 12:37:05;;;;;;;;;;;16.60;99.90;;;;;;4980441;28;20371;-40
2023/09/21 12:39:31;;;;;;;;;;;16.60;99.90;;;;;;4997065;28;19973;-40
2023/09/21 12:41:56;;;;;;;;;;;16.60;99.90;;;;;;4997409;28;20398;-40
2023/09/21 12:44:22;;;;;;;;;;;16.60;99.90;;;;;;4997297;28;19968;-40
2023/09/21 12:46:47;;;;;;;;;;;16.60;99.90;;;;;;4997306;28;19928;-40
2023/09/21 12:49:13;;;;;;;;;;;16.60;99.90;;;;;;4997226;28;19921;-40
2023/09/21 12:51:39;;;;;;;;;;;16.50;99.90;;;;;;4997086;28;19922;-40
2023/09/21 12:54:07;;;;;;;;;;;16.50;99.90;;;;;;4997020;28;19987;-41
2023/09/21 12:56:33;;;;;;;;;;;16.50;99.90;;;;;;4997149;28;20020;-40
2023/09/21 12:58:59;;;;;;;;;;;16.50;99.90;;;;;;4997129;28;19921;-40
2023/09/21 13:01:25;;;;;;;;;;;16.50;99.90;;;;;;4996984;28;19992;-41
2023/09/21 13:03:52;;;;;;;;;;;16.50;99.90;;;;;;4996815;28;20359;-41
2023/09/21 13:06:18;;;;;;;;;;;16.50;99.90;;;;;;4996933;28;20414;-40
2023/09/21 13:08:43;;;;;;;;;;;16.50;99.90;;;;;;4996693;28;19930;-41
2023/09/21 13:11:09;;;;;;;;;;;16.50;99.90;;;;;;4996642;28;19928;-40
2023/09/21 13:13:36;;;;;;;;;;;16.60;99.90;;;;;;5012247;28;19922;-41
2023/09/21 13:16:04;;;;;;;;;;;16.60;99.90;;;;;;4996885;28;19928;-41
2023/09/21 13:18:31;;;;;;;;;;;16.70;99.90;;;;;;4996878;28;19921;-41
2023/09/21 13:20:56;;;;;;;;;;;16.70;99.90;;;;;;4979192;28;20363;-41
2023/09/21 13:23:22;;;;;;;;;;;16.80;99.90;;;;;;5011918;28;19922;-41
2023/09/21 13:25:48;;;;;;;;;;;16.80;99.90;;;;;;4994564;28;20329;-41
2023/09/21 13:28:14;;;;;;;;;;;16.80;99.90;;;;;;4996613;28;19925;-41
2023/09/21 13:30:42;;;;;;;;;;;16.80;99.90;;;;;;4979307;28;19948;-41
2023/09/21 13:33:09;;;;;;;;;;;16.80;99.90;;;;;;4996449;28;19922;-41
2023/09/21 13:35:35;;;;;;;;;;;16.80;99.90;;;;;;4996363;28;19972;-41
2023/09/21 13:38:00;;;;;;;;;;;16.70;99.90;;;;;;4995187;28;19922;-41
2023/09/21 13:40:26;;;;;;;;;;;16.70;99.90;;;;;;4996261;28;19921;-41
2023/09/21 13:42:52;;;;;;;;;;;16.60;99.90;;;;;;4996249;28;19932;-41
2023/09/21 13:45:17;;;;;;;;;;;16.60;99.90;;;;;;4996060;28;19921;-41
2023/09/21 13:47:43;;;;;;;;;;;16.60;99.90;;;;;;4996275;28;19937;-41
2023/09/21 13:50:09;;;;;;;;;;;16.50;99.90;;;;;;4996008;28;19928;-40
2023/09/21 13:52:36;;;;;;;;;;;16.50;99.90;;;;;;4996111;28;20298;-41
2023/09/21 13:55:01;;;;;;;;;;;16.50;99.90;;;;;;4996066;28;19921;-40
2023/09/21 13:57:29;;;;;;;;;;;16.50;99.90;;;;;;4995965;28;19922;-41
2023/09/21 13:59:56;;;;;;;;;;;16.50;99.90;;;;;;4995844;28;20267;-41
2023/09/21 14:02:21;;;;;;;;;;;16.50;99.90;;;;;;4995818;28;19925;-41
2023/09/21 14:04:47;;;;;;;;;;;16.60;99.90;;;;;;4995761;28;19968;-40
2023/09/21 14:07:12;;;;;;;;;;;16.50;99.90;;;;;;4995621;28;19921;-41
2023/09/21 14:09:38;;;;;;;;;;;16.50;99.90;;;;;;4995861;28;20008;-40
2023/09/21 14:12:05;;;;;;;;;;;16.50;99.90;;;;;;4995645;28;20268;-40
2023/09/21 14:14:30;;;;;;;;;;;16.50;99.90;;;;;;4996053;28;19945;-41